createdAt,value
2018-05-27T04:34:22.504Z,12.93
2018-05-27T04:36:52.801Z,13.60
2018-05-27T04:39:22.616Z,14.77
2018-05-27T04:41:52.868Z,13.70
2018-05-27T04:44:23.056Z,13.97
2018-05-27T04:46:52.460Z,13.83
2018-05-27T04:49:22.628Z,14.53
2018-05-27T04:51:52.084Z,14.93
2018-05-27T04:54:22.225Z,14.17
2018-05-27T04:56:51.993Z,13.90
2018-05-27T04:59:22.156Z,14.23
2018-05-27T05:01:52.779Z,13.97
2018-05-27T05:04:23.015Z,14.47
2018-05-27T05:06:52.152Z,14.27
2018-05-27T05:09:21.131Z,14.53
2018-05-27T05:11:49.795Z,14.97
2018-05-27T05:14:23.400Z,14.37
2018-05-27T05:16:52.333Z,13.57
2018-05-27T05:19:24.932Z,13.30
2018-05-27T05:21:53.588Z,14.27
2018-05-27T05:24:28.624Z,12.37
2018-05-27T05:26:58.522Z,12.43
2018-05-27T05:29:30.228Z,12.40
2018-05-27T05:31:58.880Z,12.30
2018-05-27T05:34:31.808Z,11.43
2018-05-27T05:37:02.202Z,12.43
2018-05-27T05:39:35.406Z,12.33
2018-05-27T05:42:04.059Z,11.23
2018-05-27T05:44:37.079Z,11.80
2018-05-27T05:47:07.214Z,11.67
2018-05-27T05:49:38.449Z,11.10
2018-05-27T05:52:07.878Z,12.07
2018-05-27T05:54:49.351Z,11.90
2018-05-27T05:57:21.247Z,13.17
2018-05-27T05:59:50.685Z,12.40
2018-05-27T06:02:20.299Z,12.37
2018-05-27T06:04:49.361Z,12.80
2018-05-27T06:07:18.223Z,12.63
2018-05-27T06:09:49.152Z,13.80
2018-05-27T06:12:18.865Z,12.40
2018-05-27T06:14:51.888Z,12.50
2018-05-27T06:17:20.564Z,12.80
2018-05-27T06:19:53.537Z,12.80
2018-05-27T06:22:22.161Z,13.37
2018-05-27T06:24:56.400Z,13.10
2018-05-27T06:27:25.669Z,12.77
2018-05-27T06:29:58.886Z,12.70
2018-05-27T06:32:28.792Z,11.88
2018-05-27T06:35:01.854Z,11.43
2018-05-27T06:37:30.883Z,11.07
2018-05-27T06:40:12.876Z,11.93
2018-05-27T06:42:41.900Z,10.82
2018-05-27T06:45:11.315Z,10.50
2018-05-27T06:47:40.965Z,10.48
2018-05-27T06:50:13.251Z,10.65
2018-05-27T06:52:42.418Z,11.43
2018-05-27T06:55:12.324Z,11.38
2018-05-27T06:57:41.002Z,10.70
2018-05-27T07:00:14.160Z,10.45
2018-05-27T07:02:43.255Z,11.10
2018-05-27T07:05:25.497Z,10.23
2018-05-27T07:07:56.985Z,10.02
2018-05-27T07:10:25.668Z,9.35
2018-05-27T07:12:54.381Z,10.25
2018-05-27T07:15:23.352Z,9.60
2018-05-27T07:17:51.986Z,9.82
2018-05-27T07:20:25.247Z,9.27
2018-05-27T07:22:54.191Z,9.88
2018-05-27T07:25:26.694Z,9.02
2018-05-27T07:27:55.365Z,9.43
2018-05-27T07:30:28.509Z,8.85
2018-05-27T07:32:58.809Z,8.90
2018-05-27T07:35:31.585Z,8.63
2018-05-27T07:38:00.509Z,8.63
2018-05-27T07:40:33.264Z,8.45
2018-05-27T07:43:02.343Z,8.43
2018-05-27T07:45:35.064Z,8.60
2018-05-27T07:48:04.856Z,9.02
2018-05-27T07:50:37.488Z,9.18
2018-05-27T07:53:07.416Z,9.15
2018-05-27T07:55:39.209Z,8.50
2018-05-27T07:58:08.281Z,8.25
2018-05-27T08:00:43.542Z,8.68
2018-05-27T08:03:12.306Z,8.55
2018-05-27T08:05:44.707Z,7.35
2018-05-27T08:08:13.687Z,7.80
2018-05-27T08:10:46.933Z,8.10
2018-05-27T08:13:15.555Z,7.60
2018-05-27T08:15:48.861Z,7.47
2018-05-27T08:18:17.496Z,7.37
2018-05-27T08:20:59.764Z,7.68
2018-05-27T08:23:29.740Z,6.90
2018-05-27T08:25:58.391Z,7.37
2018-05-27T08:28:27.832Z,8.55
2018-05-27T08:30:57.287Z,7.75
2018-05-27T08:33:25.996Z,7.40
2018-05-27T08:36:01.648Z,8.35
2018-05-27T08:38:31.574Z,8.02
2018-05-27T08:41:01.335Z,7.72
2018-05-27T08:43:30.857Z,8.20
2018-05-27T08:46:12.987Z,8.10
2018-05-27T08:48:42.059Z,8.02
2018-05-27T08:51:12.058Z,8.15
2018-05-27T08:53:41.693Z,7.57
2018-05-27T08:56:11.433Z,7.12
2018-05-27T08:58:40.423Z,7.78
2018-05-27T09:01:13.184Z,7.75
2018-05-27T09:03:42.224Z,7.05
2018-05-27T09:06:16.489Z,7.47
2018-05-27T09:08:45.865Z,8.20
2018-05-27T09:11:17.637Z,8.25
2018-05-27T09:13:47.332Z,7.57
2018-05-27T09:16:28.340Z,7.82
2018-05-27T09:18:58.959Z,8.10
2018-05-27T09:21:28.024Z,7.72
2018-05-27T09:23:57.691Z,7.93
2018-05-27T09:26:28.141Z,7.45
2018-05-27T09:28:58.099Z,7.80
2018-05-27T09:31:28.351Z,6.62
2018-05-27T09:33:57.460Z,6.62
2018-05-27T09:36:29.186Z,6.97
2018-05-27T09:38:58.473Z,6.20
2018-05-27T09:41:31.280Z,6.68
2018-05-27T09:44:00.007Z,6.32
2018-05-27T09:46:33.367Z,6.62
2018-05-27T09:49:02.682Z,6.28
2018-05-27T09:51:35.567Z,5.80
2018-05-27T09:54:04.604Z,6.32
2018-05-27T09:56:38.071Z,6.20
2018-05-27T09:59:07.194Z,7.22
2018-05-27T10:01:40.729Z,7.12
2018-05-27T10:04:09.840Z,6.55
2018-05-27T10:06:43.055Z,6.07
2018-05-27T10:09:12.276Z,6.20
2018-05-27T10:11:45.689Z,6.05
2018-05-27T10:14:15.033Z,6.55
2018-05-27T10:16:57.211Z,5.45
2018-05-27T10:19:27.733Z,5.10
2018-05-27T10:21:58.543Z,4.97
2018-05-27T10:24:27.446Z,5.15
2018-05-27T10:26:56.410Z,4.82
2018-05-27T10:29:25.803Z,5.00
2018-05-27T10:31:56.290Z,5.30
2018-05-27T10:34:26.098Z,5.28
2018-05-27T10:36:59.160Z,4.90
2018-05-27T10:39:28.256Z,5.20
2018-05-27T10:42:01.384Z,5.25
2018-05-27T10:44:30.588Z,5.95
2018-05-27T10:47:11.977Z,6.53
2018-05-27T10:49:40.915Z,6.50
2018-05-27T10:52:10.763Z,6.10
2018-05-27T10:54:42.858Z,6.80
2018-05-27T10:57:14.315Z,6.12
2018-05-27T10:59:42.999Z,5.80
2018-05-27T11:02:26.331Z,5.47
2018-05-27T11:04:55.538Z,4.78
2018-05-27T11:07:24.580Z,3.78
2018-05-27T11:09:54.829Z,3.47
2018-05-27T11:12:23.787Z,2.80
2018-05-27T11:14:53.585Z,3.30
2018-05-27T11:17:23.651Z,2.83
2018-05-27T11:19:53.756Z,3.40
2018-05-27T11:22:25.397Z,3.07
2018-05-27T11:24:54.110Z,2.73
2018-05-27T11:27:35.292Z,2.60
2018-05-27T11:30:05.669Z,2.10
2018-05-27T11:32:35.750Z,2.33
2018-05-27T11:35:04.488Z,2.30
2018-05-27T11:37:33.260Z,2.03
2018-05-27T11:40:03.395Z,2.87
2018-05-27T11:42:36.053Z,3.00
2018-05-27T11:45:05.728Z,3.70
2018-05-27T11:47:36.844Z,3.37
2018-05-27T11:50:06.477Z,4.30
2018-05-27T11:52:47.852Z,4.17
2018-05-27T11:55:17.607Z,4.30
2018-05-27T11:57:47.816Z,4.43
2018-05-27T12:00:17.217Z,4.20
2018-05-27T12:02:47.877Z,3.83
2018-05-27T12:05:17.533Z,5.67
2018-05-27T12:07:46.175Z,4.10
2018-05-27T12:10:16.097Z,4.03
2018-05-27T12:12:58.132Z,4.07
2018-05-27T12:15:28.262Z,3.90
2018-05-27T12:17:57.860Z,4.00
2018-05-27T12:20:27.276Z,3.83
2018-05-27T12:22:58.529Z,4.07
2018-05-27T12:25:27.707Z,4.03
2018-05-27T12:27:57.177Z,3.87
2018-05-27T12:30:27.613Z,3.90
2018-05-27T12:32:59.656Z,3.67
2018-05-27T12:35:29.636Z,3.63
2018-05-27T12:38:01.991Z,2.97
2018-05-27T12:40:32.335Z,2.73
2018-05-27T12:43:03.516Z,2.97
2018-05-27T12:45:32.504Z,3.40
2018-05-27T12:48:06.025Z,3.60
2018-05-27T12:50:34.811Z,3.47
2018-05-27T12:53:10.613Z,3.53
2018-05-27T12:55:41.435Z,3.60
2018-05-27T12:58:14.451Z,3.47
2018-05-27T13:00:44.374Z,3.58
2018-05-27T13:03:14.849Z,3.72
2018-05-27T13:05:43.671Z,4.22
2018-05-27T13:08:18.053Z,3.65
2018-05-27T13:10:48.583Z,3.67
2018-05-27T13:13:21.208Z,3.65
2018-05-27T13:15:50.345Z,4.12
2018-05-27T13:18:22.392Z,4.65
2018-05-27T13:20:51.022Z,4.50
2018-05-27T13:23:33.243Z,4.70
2018-05-27T13:26:02.288Z,4.40
2018-05-27T13:28:30.942Z,3.55
2018-05-27T13:30:59.609Z,3.40
2018-05-27T13:33:29.005Z,3.28
2018-05-27T13:35:59.321Z,3.17
2018-05-27T13:38:31.188Z,3.67
2018-05-27T13:41:01.119Z,3.28
2018-05-27T13:43:32.924Z,3.47
2018-05-27T13:46:02.416Z,2.87
2018-05-27T13:48:36.056Z,3.85
2018-05-27T13:51:05.432Z,3.85
2018-05-27T13:53:38.235Z,2.90
2018-05-27T13:56:07.591Z,3.00
2018-05-27T13:58:40.639Z,2.90
2018-05-27T14:01:10.065Z,3.37
2018-05-27T14:03:43.236Z,3.30
2018-05-27T14:06:13.410Z,3.45
2018-05-27T14:08:45.095Z,3.20
2018-05-27T14:11:14.024Z,3.97
2018-05-27T14:13:47.207Z,3.25
2018-05-27T14:16:15.871Z,3.70
2018-05-27T14:18:48.642Z,3.75
2018-05-27T14:21:17.321Z,3.95
2018-05-27T14:23:51.610Z,4.03
2018-05-27T14:26:21.076Z,3.47
2018-05-27T14:28:53.780Z,3.92
2018-05-27T14:31:23.225Z,3.70
2018-05-27T14:33:57.554Z,3.60
2018-05-27T14:36:27.309Z,3.65
2018-05-27T14:39:01.226Z,3.62
2018-05-27T14:41:30.265Z,4.30
2018-05-27T14:44:04.110Z,3.90
2018-05-27T14:46:33.000Z,4.40
2018-05-27T14:49:15.500Z,4.10
2018-05-27T14:51:44.470Z,4.05
2018-05-27T14:54:15.193Z,3.60
2018-05-27T14:56:44.816Z,5.57
2018-05-27T14:59:14.731Z,3.92
2018-05-27T15:01:43.784Z,4.12
2018-05-27T15:04:14.128Z,3.83
2018-05-27T15:06:42.826Z,4.10
2018-05-27T15:09:18.638Z,3.83
2018-05-27T15:11:48.559Z,3.67
2018-05-27T15:14:18.192Z,3.87
2018-05-27T15:16:47.288Z,3.90
2018-05-27T15:19:21.304Z,9.18
2018-05-27T15:21:49.990Z,4.22
2018-05-27T15:24:23.084Z,3.55
2018-05-27T15:26:53.534Z,3.28
2018-05-27T15:29:26.493Z,3.80
2018-05-27T15:31:55.936Z,3.37
2018-05-27T15:34:27.307Z,3.42
2018-05-27T15:36:55.932Z,3.42
2018-05-27T15:39:30.614Z,3.87
2018-05-27T15:41:59.702Z,3.83
2018-05-27T15:44:33.486Z,3.55
2018-05-27T15:47:03.587Z,4.50
2018-05-27T15:49:36.877Z,4.05
2018-05-27T15:52:06.520Z,4.72
2018-05-27T15:54:36.775Z,4.10
2018-05-27T15:57:06.244Z,3.70
2018-05-27T15:59:39.305Z,4.03
2018-05-27T16:02:08.452Z,4.57
2018-05-27T16:04:41.152Z,6.70
2018-05-27T16:07:10.785Z,5.50
2018-05-27T16:09:52.265Z,4.50
2018-05-27T16:12:22.464Z,4.50
2018-05-27T16:14:52.962Z,3.87
2018-05-27T16:17:22.736Z,3.70
2018-05-27T16:19:52.559Z,4.37
2018-05-27T16:22:21.193Z,5.20
2018-05-27T16:24:53.575Z,4.20
2018-05-27T16:27:22.504Z,4.50
2018-05-27T16:29:54.855Z,4.20
2018-05-27T16:32:24.334Z,4.00
2018-05-27T16:34:58.631Z,4.17
2018-05-27T16:37:27.263Z,6.43
2018-05-27T16:39:59.838Z,11.20
2018-05-27T16:42:29.549Z,7.70
2018-05-27T16:57:53.423Z,3.78
2018-05-27T17:00:22.489Z,3.70
2018-05-27T17:02:52.981Z,5.05
2018-05-27T17:05:22.443Z,5.45
2018-05-27T17:07:52.615Z,6.25
2018-05-27T17:10:22.697Z,5.30
2018-05-27T17:12:52.371Z,4.83
2018-05-27T17:15:21.056Z,5.60
2018-05-27T17:17:50.044Z,6.67
2018-05-27T17:20:20.936Z,5.17
2018-05-27T17:22:50.748Z,5.50
2018-05-27T17:25:23.761Z,5.87
2018-05-27T17:27:53.246Z,5.87
2018-05-27T17:30:26.228Z,5.83
2018-05-27T17:32:55.296Z,5.93
2018-05-27T17:35:27.196Z,6.80
2018-05-27T17:37:56.272Z,7.40
2018-05-27T17:40:28.912Z,7.60
2018-05-27T17:42:58.015Z,8.33
2018-05-27T17:45:31.070Z,9.63
2018-05-27T17:48:09.262Z,9.60
2018-05-27T17:50:38.340Z,9.50
2018-05-27T17:53:08.629Z,9.97
2018-05-27T17:55:37.728Z,9.17
2018-05-27T17:58:07.399Z,10.67
2018-05-27T18:00:38.375Z,9.53
2018-05-27T18:03:07.461Z,10.77
2018-05-27T18:05:49.806Z,11.10
2018-05-27T18:08:19.640Z,11.03
2018-05-27T18:10:49.637Z,10.97
2018-05-27T18:13:19.247Z,10.37
2018-05-27T18:15:49.438Z,10.03
2018-05-27T18:18:18.562Z,11.10
2018-05-27T18:20:48.224Z,7.90
2018-05-27T18:23:17.285Z,6.47
2018-05-27T18:25:58.394Z,5.70
2018-05-27T18:28:28.840Z,3.40
2018-05-27T18:30:58.325Z,2.80
2018-05-27T18:33:27.052Z,2.97
2018-05-27T18:35:57.275Z,2.60
2018-05-27T18:38:26.409Z,2.63
2018-05-27T18:40:58.069Z,2.73
2018-05-27T18:43:27.765Z,2.90
2018-05-27T18:46:08.977Z,2.90
2018-05-27T18:48:38.798Z,2.60
2018-05-27T18:51:09.076Z,2.20
2018-05-27T18:53:37.967Z,2.57
2018-05-27T18:56:07.453Z,2.60
2018-05-27T18:58:37.387Z,2.50
2018-05-27T19:01:08.439Z,2.30
2018-05-27T19:03:37.525Z,2.30
2018-05-27T19:06:10.303Z,2.10
2018-05-27T19:08:39.671Z,2.00
2018-05-27T19:11:13.351Z,2.10
2018-05-27T19:13:43.533Z,2.67
2018-05-27T19:16:25.142Z,1.90
2018-05-27T19:18:53.850Z,2.07
2018-05-27T19:21:24.133Z,2.47
2018-05-27T19:23:52.859Z,2.20
2018-05-27T19:29:00.867Z,2.57
2018-05-27T19:31:29.567Z,2.20
2018-05-27T19:33:58.859Z,2.00
2018-05-27T19:36:28.927Z,2.10
2018-05-27T19:38:58.385Z,2.20
2018-05-27T19:41:31.406Z,2.30
2018-05-27T19:44:00.779Z,2.40
2018-05-27T19:46:33.153Z,2.23
2018-05-27T19:49:02.827Z,2.13
2018-05-27T19:51:35.609Z,2.33
2018-05-27T19:54:06.021Z,2.47
2018-05-27T19:56:38.671Z,2.07
2018-05-27T19:59:08.579Z,2.27
2018-05-27T20:01:39.235Z,2.90
2018-05-27T20:04:09.485Z,2.50
2018-05-27T20:06:41.499Z,2.60
2018-05-27T20:09:11.434Z,2.40
2018-05-27T20:11:43.715Z,2.60
2018-05-27T20:14:13.078Z,2.83
2018-05-27T20:16:46.523Z,2.87
2018-05-27T20:19:16.995Z,3.33
2018-05-27T20:21:49.237Z,2.90
2018-05-27T20:24:17.880Z,3.13
2018-05-27T20:26:49.771Z,3.03
2018-05-27T20:29:20.256Z,3.30
2018-05-27T20:31:52.838Z,3.40
2018-05-27T20:34:22.638Z,3.47
2018-05-27T20:36:56.358Z,3.60
2018-05-27T20:39:25.560Z,3.83
2018-05-27T20:41:59.195Z,3.80
2018-05-27T20:44:27.848Z,4.23
2018-05-27T20:47:01.015Z,3.93
2018-05-27T20:49:30.761Z,3.87
2018-05-27T20:52:12.760Z,3.70
2018-05-27T20:54:42.466Z,3.53
2018-05-27T20:57:12.869Z,3.80
2018-05-27T20:59:41.821Z,4.23
2018-05-27T21:02:11.871Z,3.50
2018-05-27T21:04:40.720Z,3.77
2018-05-27T21:07:13.885Z,3.77
2018-05-27T21:09:44.002Z,3.63
2018-05-27T21:12:14.162Z,3.60
2018-05-27T21:14:43.695Z,4.10
2018-05-27T21:17:17.370Z,4.13
2018-05-27T21:19:47.648Z,4.33
2018-05-27T21:22:19.828Z,4.07
2018-05-27T21:24:49.796Z,3.90
2018-05-27T21:27:22.231Z,4.03
2018-05-27T21:29:51.877Z,3.73
2018-05-27T21:32:23.670Z,4.47
2018-05-27T21:34:53.338Z,4.03
2018-05-27T21:37:25.694Z,4.47
2018-05-27T21:39:56.385Z,4.07
2018-05-27T21:42:27.377Z,3.70
2018-05-27T21:44:57.508Z,3.47
2018-05-27T21:47:31.117Z,4.27
2018-05-27T21:50:01.142Z,4.00
2018-05-27T21:52:35.540Z,3.73
2018-05-27T21:55:05.447Z,3.83
2018-05-27T21:57:35.809Z,3.43
2018-05-27T22:00:05.346Z,3.30
2018-05-27T22:15:44.955Z,5.03
2018-05-27T22:18:15.357Z,4.70
2018-05-27T22:20:46.455Z,5.60
2018-05-27T22:23:16.424Z,4.83
2018-05-27T22:25:49.159Z,5.50
2018-05-27T22:28:18.794Z,5.47
2018-05-27T22:30:51.302Z,5.50
2018-05-27T22:33:19.992Z,4.77
2018-05-27T22:36:01.205Z,5.33
2018-05-27T22:38:31.032Z,5.60
2018-05-27T22:40:59.724Z,5.60
2018-05-27T22:43:28.588Z,5.53
2018-05-27T22:45:57.981Z,5.90
2018-05-27T22:48:28.056Z,5.90
2018-05-27T22:51:02.750Z,5.73
2018-05-27T22:53:32.930Z,5.60
2018-05-27T22:56:03.669Z,5.23
2018-05-27T22:58:32.812Z,5.40
2018-05-27T23:01:05.553Z,4.97
2018-05-27T23:03:36.342Z,5.30
2018-05-27T23:06:12.179Z,5.83
2018-05-27T23:08:41.817Z,5.93
2018-05-27T23:11:12.268Z,6.40
2018-05-27T23:13:41.941Z,6.20
2018-05-27T23:16:13.534Z,6.20
2018-05-27T23:18:44.146Z,6.10
2018-05-27T23:21:18.083Z,7.10
2018-05-27T23:23:48.193Z,7.63
2018-05-27T23:26:18.852Z,7.50
2018-05-27T23:28:47.875Z,7.70
2018-05-27T23:31:29.468Z,7.50
2018-05-27T23:33:58.117Z,7.10
2018-05-27T23:36:27.863Z,6.93
2018-05-27T23:38:56.799Z,7.13
2018-05-27T23:41:26.212Z,6.77
2018-05-27T23:43:55.983Z,7.50
2018-05-27T23:46:27.424Z,8.33
2018-05-27T23:48:56.107Z,8.50
2018-05-27T23:51:35.316Z,9.00
2018-05-27T23:54:05.111Z,10.10
2018-05-27T23:56:33.773Z,9.80
2018-05-27T23:59:02.857Z,10.07
